createdAt,value
2022-11-02T00:00:36.945Z,20.9
2022-11-02T00:01:47.058Z,20.9
2022-11-02T00:02:57.176Z,20.9
2022-11-02T00:04:07.000Z,20.9
2022-11-02T00:05:17.000Z,20.8
2022-11-02T00:06:26.541Z,20.8
2022-11-02T00:07:36.664Z,20.8
2022-11-02T00:09:56.000Z,20.8
2022-11-02T00:11:07.000Z,20.8
2022-11-02T00:12:17.130Z,20.8
2022-11-02T00:13:27.248Z,20.8
2022-11-02T00:14:37.000Z,20.8
2022-11-02T00:15:47.000Z,20.8
2022-11-02T00:16:57.000Z,20.8
2022-11-02T00:18:07.000Z,20.8
2022-11-02T00:19:17.000Z,20.8
2022-11-02T00:20:27.000Z,20.8
2022-11-02T00:21:37.084Z,20.8
2022-11-02T00:22:47.195Z,20.8
2022-11-02T00:23:57.000Z,20.8
2022-11-02T00:25:07.000Z,20.8
2022-11-02T00:27:27.665Z,20.8
2022-11-02T00:28:37.787Z,20.8
2022-11-02T00:29:47.000Z,20.8
2022-11-02T00:30:58.024Z,20.8
2022-11-02T00:32:08.131Z,20.8
2022-11-02T00:33:18.000Z,20.8
2022-11-02T00:34:28.367Z,20.8
2022-11-02T00:35:38.492Z,20.8
2022-11-02T00:36:47.000Z,20.8
2022-11-02T00:37:57.733Z,20.8
2022-11-02T00:39:07.857Z,20.8
2022-11-02T00:40:17.975Z,20.8
2022-11-02T00:41:28.077Z,20.8
2022-11-02T00:42:38.209Z,20.8
2022-11-02T00:43:48.000Z,20.8
2022-11-02T00:44:58.430Z,20.8
2022-11-02T00:46:08.000Z,20.8
2022-11-02T00:47:18.000Z,20.8
2022-11-02T00:48:28.798Z,20.8
2022-11-02T00:49:38.900Z,20.8
2022-11-02T00:50:49.012Z,20.8
2022-11-02T00:51:58.000Z,20.8
2022-11-02T00:53:08.272Z,20.8
2022-11-02T00:54:18.390Z,20.8
2022-11-02T00:55:28.000Z,20.8
2022-11-02T00:56:38.000Z,20.8
2022-11-02T00:57:48.000Z,20.7
2022-11-02T00:58:58.850Z,20.7
2022-11-02T01:00:08.968Z,20.8
2022-11-02T01:01:19.000Z,20.7
2022-11-02T01:02:29.201Z,20.8
2022-11-02T01:03:39.319Z,20.7
2022-11-02T01:04:49.431Z,20.7
2022-11-02T01:05:59.000Z,20.7
2022-11-02T01:07:08.678Z,20.7
2022-11-02T01:08:18.000Z,20.7
2022-11-02T01:09:28.000Z,20.7
2022-11-02T01:10:39.000Z,20.7
2022-11-02T01:11:49.146Z,20.7
2022-11-02T01:12:59.000Z,20.7
2022-11-02T01:14:09.000Z,20.7
2022-11-02T01:15:19.000Z,20.7
2022-11-02T01:16:29.000Z,20.7
2022-11-02T01:17:39.000Z,20.7
2022-11-02T01:18:49.853Z,20.7
2022-11-02T01:19:59.971Z,20.7
2022-11-02T01:21:10.000Z,20.7
2022-11-02T01:22:19.218Z,20.7
2022-11-02T01:23:29.000Z,20.7
2022-11-02T01:24:39.453Z,20.7
2022-11-02T01:25:49.000Z,20.7
2022-11-02T01:26:59.684Z,20.7
2022-11-02T01:28:09.000Z,20.7
2022-11-02T01:29:19.000Z,20.7
2022-11-02T01:30:30.000Z,20.7
2022-11-02T01:31:40.149Z,20.7
2022-11-02T01:32:50.000Z,20.7
2022-11-02T01:34:00.000Z,20.7
2022-11-02T01:35:10.000Z,20.7
2022-11-02T01:36:20.618Z,20.7
2022-11-02T01:37:29.000Z,20.7
2022-11-02T01:38:39.000Z,20.7
2022-11-02T01:39:49.987Z,20.7
2022-11-02T01:41:00.099Z,20.7
2022-11-02T01:42:10.000Z,20.7
2022-11-02T01:43:20.000Z,20.7
2022-11-02T01:44:30.000Z,20.7
2022-11-02T01:45:40.578Z,20.7
2022-11-02T01:46:49.714Z,20.7
2022-11-02T01:47:58.000Z,20.7
2022-11-02T01:49:08.000Z,20.7
2022-11-02T01:50:19.081Z,20.7
2022-11-02T01:51:29.000Z,20.7
2022-11-02T01:52:39.323Z,20.7
2022-11-02T01:53:48.462Z,20.7
2022-11-02T01:54:57.000Z,20.7
2022-11-02T01:56:07.000Z,20.7
2022-11-02T01:57:17.824Z,20.7
2022-11-02T01:58:27.000Z,20.7
2022-11-02T01:59:38.000Z,20.7
2022-11-02T02:00:48.000Z,20.7
2022-11-02T02:01:58.000Z,20.7
2022-11-02T02:03:08.411Z,20.7
2022-11-02T02:04:18.530Z,20.7
2022-11-02T02:05:28.654Z,20.7
2022-11-02T02:06:38.763Z,20.7
2022-11-02T02:07:48.000Z,20.7
2022-11-02T02:08:58.000Z,20.7
2022-11-02T02:10:08.142Z,20.7
2022-11-02T02:11:18.000Z,20.7
2022-11-02T02:12:28.360Z,20.7
2022-11-02T02:13:38.000Z,20.6
2022-11-02T02:14:48.000Z,20.7
2022-11-02T02:15:58.707Z,20.7
2022-11-02T02:17:08.000Z,20.6
2022-11-02T02:18:18.000Z,20.6
2022-11-02T02:19:29.000Z,20.6
2022-11-02T02:20:39.178Z,20.6
2022-11-02T02:21:49.000Z,20.6
2022-11-02T02:22:59.000Z,20.6
2022-11-02T02:24:09.530Z,20.6
2022-11-02T02:25:18.657Z,20.6
2022-11-02T02:26:28.790Z,20.6
2022-11-02T02:27:38.897Z,20.6
2022-11-02T02:28:49.000Z,20.6
2022-11-02T02:29:59.000Z,20.6
2022-11-02T02:31:09.000Z,20.6
2022-11-02T02:32:19.000Z,20.6
2022-11-02T02:33:29.000Z,20.6
2022-11-02T02:34:39.604Z,20.6
2022-11-02T02:35:49.711Z,20.6
2022-11-02T02:36:59.000Z,20.6
2022-11-02T02:38:09.000Z,20.6
2022-11-02T02:39:20.000Z,20.6
2022-11-02T02:40:29.000Z,20.6
2022-11-02T02:41:39.000Z,20.6
2022-11-02T02:42:48.000Z,20.6
2022-11-02T02:43:57.000Z,20.6
2022-11-02T02:45:06.749Z,20.6
2022-11-02T02:46:16.000Z,20.6
2022-11-02T02:47:25.000Z,20.6
2022-11-02T02:48:36.000Z,20.6
2022-11-02T02:49:46.221Z,20.6
2022-11-02T02:52:06.000Z,20.6
2022-11-02T02:53:16.000Z,20.6
2022-11-02T02:54:26.000Z,20.6
2022-11-02T02:55:36.804Z,20.6
2022-11-02T02:56:46.000Z,20.6
2022-11-02T02:57:57.000Z,20.6
2022-11-02T02:59:07.163Z,20.6
2022-11-02T03:00:17.278Z,20.6
2022-11-02T03:01:27.000Z,20.6
2022-11-02T03:02:36.000Z,20.6
2022-11-02T03:03:46.649Z,20.6
2022-11-02T03:04:56.000Z,20.6
2022-11-02T03:06:06.000Z,20.6
2022-11-02T03:07:16.996Z,20.6
2022-11-02T03:08:27.000Z,20.6
2022-11-02T03:09:37.227Z,20.6
2022-11-02T03:10:46.000Z,20.6
2022-11-02T03:13:05.628Z,20.6
2022-11-02T03:14:14.000Z,20.6
2022-11-02T03:15:23.000Z,20.6
2022-11-02T03:16:34.000Z,20.6
2022-11-02T03:17:44.000Z,20.6
2022-11-02T03:18:54.000Z,20.6
2022-11-02T03:20:04.376Z,20.6
2022-11-02T03:21:14.000Z,20.6
2022-11-02T03:22:24.000Z,20.6
2022-11-02T03:23:34.000Z,20.6
2022-11-02T03:24:44.839Z,20.6
2022-11-02T03:25:54.000Z,20.6
2022-11-02T03:27:05.000Z,20.6
2022-11-02T03:28:15.000Z,20.6
2022-11-02T03:29:25.314Z,20.6
2022-11-02T03:30:35.428Z,20.6
2022-11-02T03:31:44.000Z,20.6
2022-11-02T03:32:54.000Z,20.6
2022-11-02T03:34:04.000Z,20.6
2022-11-02T03:35:14.000Z,20.6
2022-11-02T03:36:25.000Z,20.6
2022-11-02T03:37:35.153Z,20.6
2022-11-02T03:38:44.000Z,20.6
2022-11-02T03:41:03.000Z,20.6
2022-11-02T03:42:12.000Z,20.6
2022-11-02T03:43:21.000Z,20.6
2022-11-02T03:44:31.941Z,20.6
2022-11-02T03:45:42.000Z,20.5
2022-11-02T03:46:52.000Z,20.5
2022-11-02T03:48:02.288Z,20.6
2022-11-02T03:49:12.423Z,20.5
2022-11-02T03:50:22.000Z,20.5
2022-11-02T03:51:32.000Z,20.5
2022-11-02T03:52:42.768Z,20.5
2022-11-02T03:53:52.000Z,20.5
2022-11-02T03:55:03.000Z,20.5
2022-11-02T03:56:13.113Z,20.5
2022-11-02T03:57:23.000Z,20.5
2022-11-02T03:58:32.000Z,20.5
2022-11-02T03:59:42.484Z,20.5
2022-11-02T04:00:52.000Z,20.5
2022-11-02T04:02:02.000Z,20.5
2022-11-02T04:03:12.000Z,20.5
2022-11-02T04:04:22.957Z,20.5
2022-11-02T04:05:33.066Z,20.5
2022-11-02T04:06:42.000Z,20.5
2022-11-02T04:07:51.343Z,20.5
2022-11-02T04:09:01.000Z,20.5
2022-11-02T04:10:11.000Z,20.5
2022-11-02T04:11:21.000Z,20.5
2022-11-02T04:12:31.818Z,20.5
2022-11-02T04:13:40.000Z,20.5
2022-11-02T04:14:50.107Z,20.5
2022-11-02T04:16:00.000Z,20.5
2022-11-02T04:17:10.000Z,20.5
2022-11-02T04:18:20.000Z,20.5
2022-11-02T04:19:30.567Z,20.5
2022-11-02T04:20:40.680Z,20.5
2022-11-02T04:21:50.000Z,20.5
2022-11-02T04:23:00.000Z,20.5
2022-11-02T04:24:11.038Z,20.5
2022-11-02T04:25:21.000Z,20.5
2022-11-02T04:26:31.000Z,20.5
2022-11-02T04:27:41.378Z,20.5
2022-11-02T04:28:51.000Z,20.5
2022-11-02T04:30:00.629Z,20.5
2022-11-02T04:31:10.000Z,20.5
2022-11-02T04:32:20.000Z,20.5
2022-11-02T04:33:30.987Z,20.5
2022-11-02T04:34:41.000Z,20.5
2022-11-02T04:35:51.000Z,20.5
2022-11-02T04:37:01.000Z,20.5
2022-11-02T04:38:11.458Z,20.5
2022-11-02T04:39:21.000Z,20.5
2022-11-02T04:40:31.000Z,20.5
2022-11-02T04:41:41.000Z,20.5
2022-11-02T04:42:51.000Z,20.5
2022-11-02T04:44:02.047Z,20.5
2022-11-02T04:45:11.176Z,20.5
2022-11-02T04:46:21.000Z,20.4
2022-11-02T04:47:31.000Z,20.5
2022-11-02T04:48:41.000Z,20.4
2022-11-02T04:49:51.000Z,20.4
2022-11-02T04:51:01.760Z,20.4
2022-11-02T04:52:11.889Z,20.4
2022-11-02T04:53:21.998Z,20.4
2022-11-02T04:54:32.109Z,20.4
2022-11-02T04:55:42.000Z,20.4
2022-11-02T04:56:52.000Z,20.4
2022-11-02T04:58:02.000Z,20.4
2022-11-02T04:59:12.000Z,20.4
2022-11-02T05:00:21.000Z,20.4
2022-11-02T05:01:31.833Z,20.4
2022-11-02T05:02:41.965Z,20.4
2022-11-02T05:03:52.072Z,20.4
2022-11-02T05:05:02.000Z,20.4
2022-11-02T05:06:12.000Z,20.4
2022-11-02T05:07:22.000Z,20.4
2022-11-02T05:08:32.000Z,20.4
2022-11-02T05:09:42.000Z,20.4
2022-11-02T05:10:52.769Z,20.4
2022-11-02T05:12:02.000Z,20.4
2022-11-02T05:13:13.000Z,20.4
2022-11-02T05:14:23.000Z,20.4
2022-11-02T05:15:33.238Z,20.4
2022-11-02T05:16:42.000Z,20.4
2022-11-02T05:17:52.486Z,20.4
2022-11-02T05:19:02.000Z,20.4
2022-11-02T05:20:12.733Z,20.4
2022-11-02T05:21:22.835Z,20.4
2022-11-02T05:22:32.955Z,20.4
2022-11-02T05:23:43.000Z,20.4
2022-11-02T05:24:53.189Z,20.4
2022-11-02T05:26:03.308Z,20.4
2022-11-02T05:27:13.000Z,20.4
2022-11-02T05:28:23.000Z,20.4
2022-11-02T05:29:33.654Z,20.4
2022-11-02T05:30:43.000Z,20.4
2022-11-02T05:31:52.000Z,20.4
2022-11-02T05:33:03.000Z,20.4
2022-11-02T05:34:13.149Z,20.4
2022-11-02T05:35:23.266Z,20.4
2022-11-02T05:36:33.000Z,20.4
2022-11-02T05:37:43.503Z,20.4
2022-11-02T05:38:53.000Z,20.4
2022-11-02T05:40:03.732Z,20.4
2022-11-02T05:41:13.000Z,20.4
2022-11-02T05:42:23.000Z,20.4
2022-11-02T05:43:34.076Z,20.4
2022-11-02T05:44:44.000Z,20.4
2022-11-02T05:45:54.000Z,20.4
2022-11-02T05:47:03.000Z,20.4
2022-11-02T05:48:13.569Z,20.4
2022-11-02T05:49:23.676Z,20.4
2022-11-02T05:50:33.000Z,20.4
2022-11-02T05:51:43.000Z,20.4
2022-11-02T05:52:54.030Z,20.4
2022-11-02T05:54:04.153Z,20.4
2022-11-02T05:55:14.264Z,20.4
2022-11-02T05:56:24.380Z,20.4
2022-11-02T05:57:34.000Z,20.4
2022-11-02T05:58:44.000Z,20.4
2022-11-02T05:59:54.732Z,20.4
2022-11-02T06:01:04.000Z,20.4
2022-11-02T06:02:13.000Z,20.4
2022-11-02T06:03:24.101Z,20.3
2022-11-02T06:04:34.228Z,20.4
2022-11-02T06:05:44.342Z,20.3
2022-11-02T06:06:54.449Z,20.4
2022-11-02T06:08:04.570Z,20.4
2022-11-02T06:09:14.683Z,20.4
2022-11-02T06:10:24.000Z,20.4
2022-11-02T06:11:34.000Z,20.4
2022-11-02T06:12:45.036Z,20.4
2022-11-02T06:13:54.000Z,20.4
2022-11-02T06:15:03.327Z,20.4
2022-11-02T06:16:12.000Z,20.4
2022-11-02T06:17:21.000Z,20.4
2022-11-02T06:18:31.000Z,20.4
2022-11-02T06:19:41.823Z,20.4
2022-11-02T06:20:51.945Z,20.4
2022-11-02T06:22:02.000Z,20.4
2022-11-02T06:23:12.182Z,20.5
2022-11-02T06:24:22.000Z,20.5
2022-11-02T06:25:32.410Z,20.5
2022-11-02T06:26:42.000Z,20.5
2022-11-02T06:27:52.000Z,20.5
2022-11-02T06:29:02.000Z,20.5
2022-11-02T06:30:12.000Z,20.5
2022-11-02T06:31:22.990Z,20.5
2022-11-02T06:32:32.128Z,20.6
2022-11-02T06:33:42.241Z,20.6
2022-11-02T06:34:52.000Z,20.6
2022-11-02T06:36:02.000Z,20.6
2022-11-02T06:37:12.601Z,20.6
2022-11-02T06:38:22.000Z,20.6
2022-11-02T06:39:32.000Z,20.6
2022-11-02T06:40:42.949Z,20.6
2022-11-02T06:41:52.094Z,20.6
2022-11-02T06:43:01.000Z,20.6
2022-11-02T06:44:10.366Z,20.6
2022-11-02T06:45:19.000Z,20.6
2022-11-02T06:46:29.000Z,20.7
2022-11-02T06:47:39.734Z,20.7
2022-11-02T06:48:49.000Z,20.7
2022-11-02T06:49:59.969Z,20.7
2022-11-02T06:51:10.000Z,20.7
2022-11-02T06:52:20.210Z,20.7
2022-11-02T06:53:30.000Z,20.7
2022-11-02T06:54:40.000Z,20.7
2022-11-02T06:55:50.000Z,20.7
2022-11-02T06:57:00.000Z,20.8
2022-11-02T06:58:10.794Z,20.8
2022-11-02T06:59:20.904Z,20.8
2022-11-02T07:00:30.034Z,20.8
2022-11-02T07:01:40.156Z,20.8
2022-11-02T07:02:50.276Z,20.8
2022-11-02T07:04:00.386Z,20.8
2022-11-02T07:05:10.000Z,20.8
2022-11-02T07:06:20.633Z,20.8
2022-11-02T07:07:30.000Z,20.8
2022-11-02T07:08:40.855Z,20.8
2022-11-02T07:09:49.990Z,20.8
2022-11-02T07:11:00.117Z,20.8
2022-11-02T07:12:10.000Z,20.9
2022-11-02T07:13:20.356Z,20.9
2022-11-02T07:14:30.459Z,20.9
2022-11-02T07:15:40.000Z,20.9
2022-11-02T07:16:50.703Z,20.9
2022-11-02T07:18:00.000Z,20.9
2022-11-02T07:19:10.000Z,20.9
2022-11-02T07:21:31.000Z,20.9
2022-11-02T07:22:41.284Z,20.9
2022-11-02T07:23:51.000Z,21
2022-11-02T07:25:00.533Z,20.9
2022-11-02T07:26:10.000Z,20.9
2022-11-02T07:27:20.000Z,21
2022-11-02T07:28:30.878Z,21
2022-11-02T07:29:40.994Z,21
2022-11-02T07:30:51.109Z,21
2022-11-02T07:32:01.000Z,21
2022-11-02T07:33:11.000Z,21
2022-11-02T07:34:21.461Z,21
2022-11-02T07:35:31.584Z,21
2022-11-02T07:36:41.000Z,21
2022-11-02T07:37:51.818Z,21
2022-11-02T07:39:01.927Z,21
2022-11-02T07:40:11.000Z,21
2022-11-02T07:41:21.176Z,21
2022-11-02T07:42:31.000Z,21.1
2022-11-02T07:43:41.000Z,21
2022-11-02T07:44:51.000Z,21.1
2022-11-02T07:46:01.000Z,21.1
2022-11-02T07:47:11.000Z,21.1
2022-11-02T07:48:21.878Z,21.1
2022-11-02T07:49:32.000Z,21.1
2022-11-02T07:50:42.000Z,21.1
2022-11-02T07:51:52.237Z,21.1
2022-11-02T07:53:02.345Z,21.1
2022-11-02T07:54:12.459Z,21.1
2022-11-02T07:55:21.598Z,21.1
2022-11-02T07:56:31.000Z,21.2
2022-11-02T07:57:41.837Z,21.2
2022-11-02T07:58:51.000Z,21.2
2022-11-02T08:00:01.000Z,21.2
2022-11-02T08:01:10.000Z,21.2
2022-11-02T08:02:20.000Z,21.2
2022-11-02T08:03:29.479Z,21.2
2022-11-02T08:04:38.000Z,21.2
2022-11-02T08:05:48.733Z,21.2
2022-11-02T08:06:58.000Z,21.2
2022-11-02T08:08:08.969Z,21.3
2022-11-02T08:09:19.093Z,21.3
2022-11-02T08:10:29.000Z,21.3
2022-11-02T08:11:39.000Z,21.3
2022-11-02T08:12:49.000Z,21.3
2022-11-02T08:13:59.546Z,21.3
2022-11-02T08:15:09.000Z,21.3
2022-11-02T08:16:19.000Z,21.3
2022-11-02T08:17:29.000Z,21.3
2022-11-02T08:18:40.000Z,21.3
2022-11-02T08:19:49.000Z,21.3
2022-11-02T08:20:59.000Z,21.3
2022-11-02T08:22:09.000Z,21.3
2022-11-02T08:23:19.496Z,21.3
2022-11-02T08:24:29.613Z,21.3
2022-11-02T08:25:39.000Z,21.3
2022-11-02T08:26:49.000Z,21.3
2022-11-02T08:27:59.973Z,21.3
2022-11-02T08:29:09.000Z,21.3
2022-11-02T08:30:18.000Z,21.3
2022-11-02T08:31:28.000Z,21.3
2022-11-02T08:32:37.000Z,21.3
2022-11-02T08:33:46.000Z,21.3
2022-11-02T08:34:56.000Z,21.4
2022-11-02T08:36:06.000Z,21.4
2022-11-02T08:37:16.000Z,21.4
2022-11-02T08:38:27.000Z,21.4
2022-11-02T08:39:37.000Z,21.4
2022-11-02T08:40:47.000Z,21.4
2022-11-02T08:41:57.000Z,21.4
2022-11-02T08:43:07.568Z,21.4
2022-11-02T08:44:17.000Z,21.4
2022-11-02T08:45:27.808Z,21.4
2022-11-02T08:46:37.922Z,21.4
2022-11-02T08:47:48.000Z,21.4
2022-11-02T08:48:57.000Z,21.4
2022-11-02T08:50:07.285Z,21.4
2022-11-02T08:51:17.400Z,21.5
2022-11-02T08:52:27.000Z,21.5
2022-11-02T08:53:37.000Z,21.5
2022-11-02T08:54:47.000Z,21.5
2022-11-02T08:55:57.884Z,21.5
2022-11-02T08:57:07.000Z,21.5
2022-11-02T08:58:18.000Z,21.5
2022-11-02T08:59:27.245Z,21.5
2022-11-02T09:00:36.000Z,21.5
2022-11-02T09:01:45.000Z,21.5
2022-11-02T09:02:54.000Z,21.5
2022-11-02T09:04:04.000Z,21.5
2022-11-02T09:05:14.000Z,21.5
2022-11-02T09:06:25.000Z,21.5
2022-11-02T09:07:35.000Z,21.5
2022-11-02T09:08:45.000Z,21.5
2022-11-02T09:09:55.000Z,21.5
2022-11-02T09:11:05.000Z,21.5
2022-11-02T09:12:15.000Z,21.6
2022-11-02T09:13:25.000Z,21.6
2022-11-02T09:14:35.822Z,21.6
2022-11-02T09:15:45.935Z,21.6
2022-11-02T09:16:56.000Z,21.6
2022-11-02T09:18:05.000Z,21.6
2022-11-02T09:19:15.000Z,21.6
2022-11-02T09:20:25.000Z,21.6
2022-11-02T09:21:35.000Z,21.6
2022-11-02T09:22:45.000Z,21.6
2022-11-02T09:23:55.000Z,21.6
2022-11-02T09:25:05.000Z,21.6
2022-11-02T09:26:16.005Z,21.6
2022-11-02T09:27:25.000Z,21.6
2022-11-02T09:28:35.000Z,21.7
2022-11-02T09:29:44.000Z,21.7
2022-11-02T09:30:54.000Z,21.7
2022-11-02T09:32:03.658Z,21.7
2022-11-02T09:33:12.000Z,21.7
2022-11-02T09:34:22.000Z,21.7
2022-11-02T09:35:33.000Z,21.7
2022-11-02T09:36:43.000Z,21.7
2022-11-02T09:37:53.000Z,21.7
2022-11-02T09:39:03.374Z,21.7
2022-11-02T09:40:13.000Z,21.7
2022-11-02T09:41:23.000Z,21.8
2022-11-02T09:42:33.725Z,21.8
2022-11-02T09:43:43.000Z,21.8
2022-11-02T09:44:53.000Z,21.8
2022-11-02T09:46:04.000Z,21.8
2022-11-02T09:47:14.000Z,21.8
2022-11-02T09:48:23.000Z,21.8
2022-11-02T09:49:33.442Z,21.8
2022-11-02T09:50:43.558Z,21.9
2022-11-02T09:51:53.000Z,21.9
2022-11-02T09:53:03.000Z,21.9
2022-11-02T09:54:13.953Z,21.9
2022-11-02T09:55:24.000Z,21.9
2022-11-02T09:56:34.147Z,21.9
2022-11-02T09:57:43.287Z,21.9
2022-11-02T09:58:52.424Z,22
2022-11-02T10:00:01.000Z,22
2022-11-02T10:01:10.000Z,22
2022-11-02T10:02:20.000Z,22
2022-11-02T10:03:30.000Z,22
2022-11-02T10:04:41.055Z,22
2022-11-02T10:05:51.000Z,22
2022-11-02T10:07:01.000Z,22
2022-11-02T10:08:11.401Z,22
2022-11-02T10:09:21.513Z,22.1
2022-11-02T10:10:31.628Z,22.1
2022-11-02T10:11:41.000Z,22.1
2022-11-02T10:12:51.000Z,22.1
2022-11-02T10:14:01.979Z,22.1
2022-11-02T10:15:12.000Z,22.1
2022-11-02T10:16:21.000Z,22.1
2022-11-02T10:17:31.365Z,22.1
2022-11-02T10:18:41.000Z,22.2
2022-11-02T10:19:51.582Z,22.1
2022-11-02T10:21:01.705Z,22.2
2022-11-02T10:22:11.000Z,22.2
2022-11-02T10:23:21.000Z,22.2
2022-11-02T10:24:31.073Z,22.2
2022-11-02T10:25:40.000Z,22.2
2022-11-02T10:26:50.000Z,22.2
2022-11-02T10:28:00.000Z,22.2
2022-11-02T10:29:10.563Z,22.2
2022-11-02T10:30:20.000Z,22.2
2022-11-02T10:31:29.000Z,22.2
2022-11-02T10:32:38.000Z,22.2
2022-11-02T10:34:59.000Z,22.2
2022-11-02T10:36:09.000Z,22.3
2022-11-02T10:37:19.000Z,22.3
2022-11-02T10:38:29.000Z,22.3
2022-11-02T10:39:39.000Z,22.3
2022-11-02T10:40:49.000Z,22.3
2022-11-02T10:41:59.000Z,22.3
2022-11-02T10:43:10.000Z,22.3
2022-11-02T10:44:20.000Z,22.3
2022-11-02T10:45:30.000Z,22.3
2022-11-02T10:46:40.000Z,22.3
2022-11-02T10:47:49.483Z,22.3
2022-11-02T10:48:59.000Z,22.3
2022-11-02T10:50:09.000Z,22.3
2022-11-02T10:51:19.843Z,22.3
2022-11-02T10:52:29.000Z,22.3
2022-11-02T10:53:40.070Z,22.3
2022-11-02T10:54:50.000Z,22.3
2022-11-02T10:56:00.000Z,22.3
2022-11-02T10:57:10.000Z,22.3
2022-11-02T10:58:20.000Z,22.4
2022-11-02T10:59:30.650Z,22.3
2022-11-02T11:00:40.000Z,22.4
2022-11-02T11:01:50.000Z,22.4
2022-11-02T11:03:00.018Z,22.4
2022-11-02T11:04:09.000Z,22.4
2022-11-02T11:05:19.000Z,22.4
2022-11-02T11:06:29.387Z,22.4
2022-11-02T11:07:39.000Z,22.4
2022-11-02T11:08:49.000Z,22.4
2022-11-02T11:09:59.000Z,22.4
2022-11-02T11:11:09.864Z,22.4
2022-11-02T11:12:19.972Z,22.4
2022-11-02T11:13:29.000Z,22.4
2022-11-02T11:14:38.000Z,22.4
2022-11-02T11:15:47.409Z,22.4
2022-11-02T11:16:56.000Z,22.4
2022-11-02T11:18:06.649Z,22.4
2022-11-02T11:19:16.760Z,22.4
2022-11-02T11:20:26.000Z,22.4
2022-11-02T11:21:36.000Z,22.4
2022-11-02T11:22:47.000Z,22.4
2022-11-02T11:23:57.000Z,22.4
2022-11-02T11:25:07.000Z,22.4
2022-11-02T11:26:17.460Z,22.4
2022-11-02T11:27:27.000Z,22.4
2022-11-02T11:28:37.000Z,22.4
2022-11-02T11:29:47.000Z,22.4
2022-11-02T11:30:57.000Z,22.4
2022-11-02T11:32:07.060Z,22.4
2022-11-02T11:33:17.179Z,22.5
2022-11-02T11:34:27.295Z,22.4
2022-11-02T11:35:37.000Z,22.4
2022-11-02T11:36:47.000Z,22.5
2022-11-02T11:37:57.000Z,22.4
2022-11-02T11:39:07.000Z,22.4
2022-11-02T11:40:17.000Z,22.4
2022-11-02T11:41:28.000Z,22.4
2022-11-02T11:42:38.000Z,22.4
2022-11-02T11:43:48.000Z,22.4
2022-11-02T11:44:58.343Z,22.4
2022-11-02T11:46:08.472Z,22.4
2022-11-02T11:47:17.000Z,22.4
2022-11-02T11:48:27.716Z,22.5
2022-11-02T11:49:37.000Z,22.5
2022-11-02T11:50:47.000Z,22.5
2022-11-02T11:51:58.000Z,22.5
2022-11-02T11:53:08.000Z,22.5
2022-11-02T11:54:18.000Z,22.5
2022-11-02T11:55:28.413Z,22.5
2022-11-02T11:56:38.000Z,22.5
2022-11-02T11:57:48.000Z,22.5
2022-11-02T11:58:58.767Z,22.5
2022-11-02T12:01:19.005Z,22.5
2022-11-02T12:02:28.000Z,22.5
2022-11-02T12:03:38.258Z,22.5
2022-11-02T12:04:48.000Z,22.5
2022-11-02T12:05:58.000Z,22.5
2022-11-02T12:07:07.000Z,22.6
2022-11-02T12:08:16.000Z,22.6
2022-11-02T12:09:26.000Z,22.6
2022-11-02T12:10:36.000Z,22.5
2022-11-02T12:11:47.000Z,22.6
2022-11-02T12:12:57.000Z,22.6
2022-11-02T12:14:07.340Z,22.6
2022-11-02T12:15:17.000Z,22.6
2022-11-02T12:16:26.612Z,22.6
2022-11-02T12:17:36.000Z,22.6
2022-11-02T12:18:45.000Z,22.6
2022-11-02T12:19:55.964Z,22.6
2022-11-02T12:21:06.089Z,22.6
2022-11-02T12:22:16.000Z,22.6
2022-11-02T12:23:26.000Z,22.6
2022-11-02T12:24:36.000Z,22.6
2022-11-02T12:25:46.000Z,22.6
2022-11-02T12:26:56.000Z,22.6
2022-11-02T12:28:06.000Z,22.6
2022-11-02T12:29:16.000Z,22.6
2022-11-02T12:30:27.000Z,22.6
2022-11-02T12:31:37.000Z,22.6
2022-11-02T12:32:47.000Z,22.6
2022-11-02T12:33:56.000Z,22.6
2022-11-02T12:36:25.715Z,22.6
2022-11-02T12:37:26.248Z,22.6
2022-11-02T12:38:36.000Z,22.6
2022-11-02T12:39:46.474Z,22.6
2022-11-02T12:40:56.590Z,22.6
2022-11-02T12:42:06.712Z,22.6
2022-11-02T12:43:16.831Z,22.6
2022-11-02T12:44:26.957Z,22.7
2022-11-02T12:45:37.000Z,22.7
2022-11-02T12:46:47.000Z,22.7
2022-11-02T12:47:57.000Z,22.7
2022-11-02T12:49:06.000Z,22.7
2022-11-02T12:50:16.544Z,22.7
2022-11-02T12:51:27.000Z,22.7
2022-11-02T12:52:37.000Z,22.7
2022-11-02T12:53:47.000Z,22.7
2022-11-02T12:54:57.019Z,22.7
2022-11-02T12:56:07.000Z,22.7
2022-11-02T12:57:17.000Z,22.7
2022-11-02T12:58:27.000Z,22.7
2022-11-02T12:59:37.000Z,22.7
2022-11-02T13:01:58.000Z,22.7
2022-11-02T13:03:08.000Z,22.7
2022-11-02T13:04:17.000Z,22.7
2022-11-02T13:05:26.000Z,22.7
2022-11-02T13:06:35.000Z,22.7
2022-11-02T13:07:44.385Z,22.8
2022-11-02T13:08:54.504Z,22.8
2022-11-02T13:10:05.000Z,22.8
2022-11-02T13:11:14.746Z,22.8
2022-11-02T13:12:24.849Z,22.8
2022-11-02T13:13:35.000Z,22.8
2022-11-02T13:14:45.081Z,22.8
2022-11-02T13:15:55.000Z,22.8
2022-11-02T13:17:05.000Z,22.8
2022-11-02T13:18:15.427Z,22.8
2022-11-02T13:19:26.000Z,22.8
2022-11-02T13:20:36.000Z,22.8
2022-11-02T13:21:46.000Z,22.8
2022-11-02T13:22:55.000Z,22.8
2022-11-02T13:24:05.000Z,22.8
2022-11-02T13:25:15.000Z,22.8
2022-11-02T13:26:25.000Z,22.8
2022-11-02T13:27:35.000Z,22.8
2022-11-02T13:28:45.000Z,22.8
2022-11-02T13:29:56.000Z,22.8
2022-11-02T13:31:04.764Z,22.8
2022-11-02T13:32:14.000Z,22.8
2022-11-02T13:33:24.004Z,22.8
2022-11-02T13:34:34.000Z,22.8
2022-11-02T13:35:44.000Z,22.8
2022-11-02T13:36:54.000Z,22.8
2022-11-02T13:38:04.000Z,22.8
2022-11-02T13:39:15.000Z,22.8
2022-11-02T13:40:24.705Z,22.8
2022-11-02T13:41:35.000Z,22.8
2022-11-02T13:42:44.946Z,22.8
2022-11-02T13:43:55.000Z,22.8
2022-11-02T13:45:05.660Z,22.9
2022-11-02T13:46:15.779Z,22.9
2022-11-02T13:47:25.891Z,22.9
2022-11-02T13:48:36.000Z,22.9
2022-11-02T13:49:45.155Z,22.9
2022-11-02T13:50:55.000Z,22.9
2022-11-02T13:52:05.000Z,22.9
2022-11-02T13:53:15.000Z,22.9
2022-11-02T13:54:25.000Z,22.9
2022-11-02T13:55:34.000Z,22.9
2022-11-02T13:56:43.000Z,22.9
2022-11-02T13:57:54.008Z,22.9
2022-11-02T13:59:04.000Z,22.9
2022-11-02T14:00:13.000Z,22.9
2022-11-02T14:01:22.000Z,22.9
2022-11-02T14:02:32.000Z,22.9
2022-11-02T14:03:42.635Z,22.9
2022-11-02T14:04:52.000Z,22.9
2022-11-02T14:06:02.000Z,22.9
2022-11-02T14:07:12.978Z,22.9
2022-11-02T14:08:23.000Z,22.9
2022-11-02T14:09:33.213Z,22.9
2022-11-02T14:10:43.000Z,22.9
2022-11-02T14:11:53.451Z,22.9
2022-11-02T14:13:03.566Z,22.9
2022-11-02T14:14:13.685Z,22.9
2022-11-02T14:15:23.000Z,22.9
2022-11-02T14:16:33.000Z,22.9
2022-11-02T14:17:43.000Z,22.9
2022-11-02T14:18:53.000Z,22.9
2022-11-02T14:20:03.285Z,22.9
2022-11-02T14:21:13.402Z,22.9
2022-11-02T14:22:23.512Z,22.9
2022-11-02T14:23:33.000Z,22.9
2022-11-02T14:24:42.000Z,22.9
2022-11-02T14:25:51.000Z,22.9
2022-11-02T14:27:02.000Z,22.9
2022-11-02T14:28:12.000Z,22.9
2022-11-02T14:29:22.000Z,22.9
2022-11-02T14:30:32.377Z,22.9
2022-11-02T14:31:42.000Z,22.9
2022-11-02T14:32:52.615Z,22.9
2022-11-02T14:34:02.000Z,22.9
2022-11-02T14:35:12.000Z,22.9
2022-11-02T14:36:21.000Z,22.9
2022-11-02T14:37:31.115Z,22.9
2022-11-02T14:38:41.000Z,22.9
2022-11-02T14:39:51.000Z,22.9
2022-11-02T14:41:01.000Z,22.9
2022-11-02T14:42:11.000Z,22.9
2022-11-02T14:43:21.000Z,22.9
2022-11-02T14:44:31.832Z,22.9
2022-11-02T14:45:41.000Z,22.9
2022-11-02T14:46:52.051Z,22.9
2022-11-02T14:48:02.000Z,22.9
2022-11-02T14:49:12.000Z,22.9
2022-11-02T14:50:22.000Z,22.9
2022-11-02T14:51:32.000Z,22.9
2022-11-02T14:52:41.000Z,22.9
2022-11-02T14:53:51.773Z,22.9
2022-11-02T14:55:01.000Z,22.9
2022-11-02T14:56:11.998Z,22.9
2022-11-02T14:57:22.000Z,22.9
2022-11-02T14:58:31.259Z,22.9
2022-11-02T14:59:41.381Z,22.9
2022-11-02T15:00:51.488Z,22.9
2022-11-02T15:02:01.000Z,22.9
2022-11-02T15:03:11.722Z,22.9
2022-11-02T15:04:20.869Z,22.9
2022-11-02T15:05:29.998Z,22.9
2022-11-02T15:06:39.000Z,22.9
2022-11-02T15:07:48.000Z,22.9
2022-11-02T15:08:58.393Z,22.9
2022-11-02T15:10:08.000Z,22.9
2022-11-02T15:11:18.000Z,22.9
2022-11-02T15:12:28.741Z,22.9
2022-11-02T15:13:38.000Z,22.9
2022-11-02T15:14:48.000Z,22.9
2022-11-02T15:15:59.101Z,22.9
2022-11-02T15:17:09.000Z,22.9
2022-11-02T15:18:19.000Z,22.9
2022-11-02T15:19:29.000Z,22.9
2022-11-02T15:20:39.560Z,22.9
2022-11-02T15:21:49.681Z,22.9
2022-11-02T15:22:59.000Z,22.9
2022-11-02T15:24:09.000Z,22.9
2022-11-02T15:25:19.000Z,22.9
2022-11-02T15:26:29.162Z,22.9
2022-11-02T15:27:39.000Z,22.9
2022-11-02T15:28:49.398Z,22.9
2022-11-02T15:29:59.000Z,22.9
2022-11-02T15:31:09.000Z,22.9
2022-11-02T15:32:19.743Z,22.9
2022-11-02T15:33:29.000Z,22.9
2022-11-02T15:34:39.979Z,22.9
2022-11-02T15:35:50.093Z,22.9
2022-11-02T15:37:00.000Z,22.9
2022-11-02T15:38:10.000Z,22.8
2022-11-02T15:39:20.456Z,22.8
2022-11-02T15:40:29.577Z,22.9
2022-11-02T15:41:39.000Z,22.8
2022-11-02T15:42:49.810Z,22.8
2022-11-02T15:43:59.000Z,22.8
2022-11-02T15:45:10.000Z,22.8